Time;durP1;ratioP1;P1;durP2;ratioP2;P2;SDS_P1;SDS_P2;PMS_P1;PMS_P2;Temp;Humidity;BMP_temperature;BMP_pressure;BME280_temperature;BME280_humidity;BME280_pressure;Samples;Min_cycle;Max_cycle;Signal;HPM_P1;HPM_P2
2022/10/28 00:01:13;;;;;;;9.17;3.33;;;;;;;17.21;77.59;101238.25;5093558;28;20594;-81
2022/10/28 00:03:42;;;;;;;6.13;3.00;;;;;;;17.22;77.54;101237.28;5097933;28;20702;-81
2022/10/28 00:06:12;;;;;;;6.77;3.13;;;;;;;17.22;77.60;101241.81;5095964;28;20200;-81
2022/10/28 00:08:38;;;;;;;3.83;2.53;;;;;;;17.22;77.84;101231.88;5087777;28;20207;-81
2022/10/28 00:11:07;;;;;;;5.73;2.90;;;;;;;17.22;77.78;101234.59;5094777;28;20805;-81
2022/10/28 00:13:34;;;;;;;12.17;3.23;;;;;;;17.23;77.91;101244.38;5096353;28;20253;-81
2022/10/28 00:16:06;;;;;;;6.50;3.00;;;;;;;17.23;77.90;101252.44;5098590;28;20197;-81
2022/10/28 00:18:32;;;;;;;6.33;2.73;;;;;;;17.25;77.85;101249.63;5094921;28;20217;-81
2022/10/28 00:21:01;;;;;;;6.40;3.00;;;;;;;17.26;77.81;101246.81;5085968;28;20205;-81
2022/10/28 00:23:29;;;;;;;8.10;3.73;;;;;;;17.27;77.55;101245.84;5089502;28;20199;-81
2022/10/28 00:25:55;;;;;;;4.93;3.03;;;;;;;17.26;77.57;101252.19;5090760;28;20205;-81
2022/10/28 00:28:22;;;;;;;7.67;3.03;;;;;;;17.28;77.44;101263.69;5084410;28;21063;-81
2022/10/28 00:30:48;;;;;;;6.80;2.67;;;;;;;17.29;77.21;101251.09;5093800;28;20216;-81
2022/10/28 00:33:15;;;;;;;8.00;3.43;;;;;;;17.29;77.17;101260.03;5091081;28;20222;-81
2022/10/28 00:35:41;;;;;;;6.70;3.13;;;;;;;17.30;77.18;101259.06;5087203;28;20219;-81
2022/10/28 00:38:08;;;;;;;6.97;2.80;;;;;;;17.29;76.95;101262.72;5090631;28;20205;-81
2022/10/28 00:40:36;;;;;;;6.93;2.77;;;;;;;17.28;77.07;101269.09;5091610;28;20551;-81
2022/10/28 00:43:02;;;;;;;7.80;2.73;;;;;;;17.29;77.03;101268.09;5090486;28;20891;-81
2022/10/28 00:45:29;;;;;;;5.50;3.43;;;;;;;17.29;76.93;101269.94;5090970;28;20230;-81
2022/10/28 00:48:00;;;;;;;6.53;3.17;;;;;;;17.29;76.80;101292.34;5086766;28;20204;-81
2022/10/28 00:50:37;;;;;;;6.17;2.87;;;;;;;17.29;76.92;101292.34;5086205;28;20674;-81
2022/10/28 00:53:07;;;;;;;6.97;2.90;;;;;;;17.31;77.11;101297.59;5084087;28;20212;-81
2022/10/28 00:55:36;;;;;;;9.30;3.03;;;;;;;17.33;76.97;101298.34;5087190;28;20206;-81
2022/10/28 00:58:05;;;;;;;5.60;2.60;;;;;;;17.33;76.94;101285.72;5087102;28;20646;-81
2022/10/28 01:00:32;;;;;;;12.83;3.10;;;;;;;17.38;76.78;101288.03;5086149;28;20207;-81
2022/10/28 01:02:59;;;;;;;7.17;2.77;;;;;;;17.39;76.62;101295.13;5088759;28;20201;-81
2022/10/28 01:05:28;;;;;;;4.70;2.73;;;;;;;17.41;76.49;101284.22;5085277;28;20246;-81
2022/10/28 01:07:59;;;;;;;4.83;2.87;;;;;;;17.41;76.35;101286.91;5093398;28;20679;-81
2022/10/28 01:10:42;;;;;;;7.93;2.87;;;;;;;17.41;76.32;101282.41;5088822;28;20213;-82
2022/10/28 01:13:15;;;;;;;5.37;2.47;;;;;;;17.42;76.25;101284.09;5085646;28;20774;-81
2022/10/28 01:15:49;;;;;;;8.13;3.43;;;;;;;17.42;76.42;101291.31;5090942;28;20653;-81
2022/10/28 01:18:22;;;;;;;5.70;2.93;;;;;;;17.42;76.45;101291.31;5094211;28;20923;-81
2022/10/28 01:21:18;;;;;;;4.77;2.70;;;;;;;17.40;76.37;101288.75;5092247;28;20292;-81
2022/10/28 01:23:56;;;;;;;6.80;3.20;;;;;;;17.40;76.42;101286.06;5089349;28;20225;-81
2022/10/28 01:27:13;;;;;;;5.50;2.60;;;;;;;17.38;76.31;101277.25;5088759;28;20209;-81
2022/10/28 01:29:59;;;;;;;12.03;3.23;;;;;;;17.37;76.42;101274.72;5061031;28;20212;-81
2022/10/28 01:32:33;;;;;;;5.93;3.13;;;;;;;17.33;76.46;101277.66;5081727;28;20284;-81
2022/10/28 01:35:10;;;;;;;9.60;2.83;;;;;;;17.32;76.43;101269.69;5089644;28;20231;-82
2022/10/28 01:37:40;;;;;;;10.37;2.67;;;;;;;17.30;76.33;101268.97;5087842;28;20209;-81
2022/10/28 01:40:16;;;;;;;6.47;3.23;;;;;;;17.25;76.47;101265.78;5088136;28;20190;-82
2022/10/28 01:42:51;;;;;;;9.53;3.10;;;;;;;17.22;76.62;101266.03;5091946;28;20192;-81
2022/10/28 01:45:22;;;;;;;7.60;2.83;;;;;;;17.18;76.71;101269.97;5091422;28;20236;-81
2022/10/28 01:47:57;;;;;;;7.10;3.37;;;;;;;17.14;76.94;101263.13;5093453;28;20215;-81
2022/10/28 01:50:26;;;;;;;4.80;2.67;;;;;;;17.11;77.11;101248.06;5086869;28;20229;-82
2022/10/28 01:52:56;;;;;;;7.47;2.90;;;;;;;17.07;77.27;101241.22;5086558;28;20220;-82
2022/10/28 01:55:26;;;;;;;5.73;2.90;;;;;;;17.04;77.48;101221.78;5090340;28;20230;-81
2022/10/28 01:57:57;;;;;;;5.20;2.70;;;;;;;17.00;77.79;101216.66;5092798;28;20216;-82
2022/10/28 02:00:25;;;;;;;5.73;3.20;;;;;;;16.97;77.91;101219.59;5090022;28;20220;-81
2022/10/28 02:02:55;;;;;;;5.60;3.10;;;;;;;16.94;78.06;101230.59;5090230;28;20204;-82
2022/10/28 02:05:40;;;;;;;6.90;2.90;;;;;;;16.90;78.14;101265.94;5090714;28;20316;-82
2022/10/28 02:08:26;;;;;;;5.43;3.50;;;;;;;16.85;78.47;101279.75;5082050;28;20192;-82
2022/10/28 02:11:06;;;;;;;6.33;3.40;;;;;;;16.83;78.83;101259.38;5090462;28;20676;-81
2022/10/28 02:13:43;;;;;;;7.37;3.83;;;;;;;16.80;79.11;101265.84;5092070;28;20248;-81
2022/10/28 02:16:17;;;;;;;4.67;2.90;;;;;;;16.76;79.22;101258.97;5085131;28;20196;-81
2022/10/28 02:18:51;;;;;;;5.57;3.70;;;;;;;16.72;79.48;101254.81;5085213;28;20213;-81
2022/10/28 02:21:24;;;;;;;6.53;3.83;;;;;;;16.69;79.54;101246.13;5091591;28;20210;-82
2022/10/28 02:23:56;;;;;;;7.20;3.30;;;;;;;16.66;79.80;101241.84;5092362;28;20670;-81
2022/10/28 02:26:30;;;;;;;8.03;3.80;;;;;;;16.65;79.93;101242.84;5090686;28;20200;-82
2022/10/28 02:29:03;;;;;;;5.93;3.50;;;;;;;16.61;79.86;101236.81;5091957;28;20213;-81
2022/10/28 02:31:33;;;;;;;4.87;3.03;;;;;;;16.58;80.00;101225.44;5092774;28;20203;-81
2022/10/28 02:34:06;;;;;;;7.43;3.30;;;;;;;16.58;80.12;101223.63;5092135;28;20629;-81
2022/10/28 02:36:37;;;;;;;5.13;3.37;;;;;;;16.55;79.99;101223.84;5091241;28;20211;-81
2022/10/28 02:39:06;;;;;;;6.50;3.20;;;;;;;16.47;79.97;101222.75;5091863;28;20200;-81
2022/10/28 02:41:39;;;;;;;10.30;3.90;;;;;;;16.43;80.09;101230.22;5092446;28;20211;-81
2022/10/28 02:44:09;;;;;;;9.67;3.47;;;;;;;16.38;80.63;101227.00;5087614;28;20234;-81
2022/10/28 02:46:39;;;;;;;5.80;3.53;;;;;;;16.33;80.51;101213.06;5091888;28;20829;-81
2022/10/28 02:49:10;;;;;;;6.37;3.23;;;;;;;16.31;80.64;101213.19;5092840;28;20207;-81
2022/10/28 02:51:40;;;;;;;5.77;3.93;;;;;;;16.26;80.70;101204.66;5089601;28;20199;-81
2022/10/28 02:54:10;;;;;;;6.33;3.20;;;;;;;16.23;80.82;101212.09;5089777;28;20231;-81
2022/10/28 02:56:40;;;;;;;6.73;3.40;;;;;;;16.19;81.02;101199.84;5092499;28;20206;-82
2022/10/28 02:59:10;;;;;;;8.47;3.40;;;;;;;16.16;81.41;101195.56;5091192;28;20200;-81
2022/10/28 03:01:37;;;;;;;6.23;3.30;;;;;;;16.14;81.84;101188.59;5091032;28;20203;-81
2022/10/28 03:04:03;;;;;;;6.17;3.10;;;;;;;16.15;82.16;101184.94;5091935;28;20226;-81
2022/10/28 03:06:32;;;;;;;8.33;3.60;;;;;;;16.19;82.17;101179.22;5090062;28;20208;-81
2022/10/28 03:08:59;;;;;;;5.90;3.10;;;;;;;16.23;82.76;101166.41;5091922;28;20203;-81
2022/10/28 03:11:25;;;;;;;4.93;2.60;;;;;;;16.29;82.35;101163.25;5085318;28;20204;-81
2022/10/28 03:13:51;;;;;;;8.43;2.90;;;;;;;16.33;82.23;101157.47;5092341;28;20244;-82
2022/10/28 03:16:18;;;;;;;5.43;2.93;;;;;;;16.38;81.84;101158.94;5089991;28;20217;-81
2022/10/28 03:18:44;;;;;;;6.70;2.67;;;;;;;16.42;81.62;101146.97;5085514;28;20603;-82
2022/10/28 03:21:11;;;;;;;8.60;3.07;;;;;;;16.45;81.46;101152.97;5092620;28;20575;-81
2022/10/28 03:23:39;;;;;;;5.63;3.37;;;;;;;16.48;81.32;101155.41;5092426;28;20219;-81
2022/10/28 03:26:05;;;;;;;6.07;3.07;;;;;;;16.48;81.18;101158.09;5091955;28;20203;-81
2022/10/28 03:28:32;;;;;;;6.33;3.03;;;;;;;16.49;80.93;101164.31;5092472;28;20214;-81
2022/10/28 03:30:58;;;;;;;6.90;2.90;;;;;;;16.51;80.84;101171.28;5093887;28;20207;-82
2022/10/28 03:33:25;;;;;;;6.23;2.60;;;;;;;16.53;80.74;101173.84;5092340;28;20234;-81
2022/10/28 03:35:51;;;;;;;8.73;2.73;;;;;;;16.55;80.73;101174.59;5085084;28;20218;-81
2022/10/28 03:38:18;;;;;;;5.67;3.30;;;;;;;16.56;80.44;101158.34;5089612;28;20594;-81
2022/10/28 03:40:47;;;;;;;4.80;3.17;;;;;;;16.58;80.29;101151.00;5087113;28;20214;-81
2022/10/28 03:43:13;;;;;;;6.23;3.10;;;;;;;16.59;80.28;101150.03;5091041;28;20204;-82
2022/10/28 03:45:40;;;;;;;8.40;3.53;;;;;;;16.59;79.87;101166.16;5082457;28;20208;-81
2022/10/28 03:48:06;;;;;;;7.23;2.87;;;;;;;16.57;80.06;101160.06;5084264;28;20203;-81
2022/10/28 03:50:33;;;;;;;8.93;2.67;;;;;;;16.56;79.85;101144.91;5085200;28;20635;-82
2022/10/28 03:52:59;;;;;;;7.00;3.00;;;;;;;16.55;79.73;101147.69;5086628;28;20218;-82
2022/10/28 03:55:26;;;;;;;8.50;3.27;;;;;;;16.53;79.68;101153.19;5088822;28;21464;-82
2022/10/28 03:57:54;;;;;;;7.10;3.03;;;;;;;16.52;79.72;101162.25;5087077;28;20211;-82
2022/10/28 04:00:21;;;;;;;7.63;3.13;;;;;;;16.51;79.71;101155.16;5088067;28;20206;-82
2022/10/28 04:02:50;;;;;;;6.67;3.10;;;;;;;16.49;79.76;101178.63;5091016;28;20219;-81
2022/10/28 04:05:16;;;;;;;4.43;2.80;;;;;;;16.49;79.81;101165.16;5091044;28;20245;-82
2022/10/28 04:07:43;;;;;;;8.07;3.10;;;;;;;16.47;79.86;101156.41;5087611;28;20214;-81
2022/10/28 04:10:10;;;;;;;5.03;3.00;;;;;;;16.48;79.96;101171.53;5086704;28;20210;-81
2022/10/28 04:12:36;;;;;;;7.03;3.47;;;;;;;16.45;80.00;101161.03;5091197;28;20206;-82
2022/10/28 04:15:05;;;;;;;6.47;2.97;;;;;;;16.42;80.02;101158.59;5091631;28;20240;-82
2022/10/28 04:17:34;;;;;;;4.90;3.70;;;;;;;16.40;80.15;101141.72;5085901;28;21419;-81
2022/10/28 04:20:00;;;;;;;9.60;3.57;;;;;;;16.36;80.11;101140.25;5083619;28;20202;-81
2022/10/28 04:22:27;;;;;;;7.93;2.90;;;;;;;16.37;80.19;101144.66;5083780;28;20210;-81
2022/10/28 04:24:53;;;;;;;7.70;2.87;;;;;;;16.38;80.10;101135.63;5087237;28;20231;-82
2022/10/28 04:27:20;;;;;;;7.13;2.83;;;;;;;16.39;80.09;101131.94;5087637;28;20260;-81
2022/10/28 04:29:46;;;;;;;5.90;3.00;;;;;;;16.38;80.07;101135.63;5080809;28;20210;-81
2022/10/28 04:32:14;;;;;;;7.57;3.63;;;;;;;16.35;80.04;101133.16;5084721;28;20207;-81
2022/10/28 04:34:40;;;;;;;5.93;2.97;;;;;;;16.33;80.23;101127.91;5084137;28;20238;-82
2022/10/28 04:37:07;;;;;;;7.23;2.60;;;;;;;16.35;80.31;101129.63;5079632;28;20200;-82
2022/10/28 04:39:33;;;;;;;8.33;3.33;;;;;;;16.38;80.44;101129.38;5082649;28;20208;-82
2022/10/28 04:42:00;;;;;;;10.80;3.17;;;;;;;16.42;80.34;101131.72;5082057;28;20209;-81
2022/10/28 04:44:26;;;;;;;8.93;3.40;;;;;;;16.49;80.31;101119.47;5078224;28;20857;-82
2022/10/28 04:46:55;;;;;;;5.87;2.93;;;;;;;16.54;80.09;101122.66;5081941;28;20223;-81
2022/10/28 04:49:23;;;;;;;5.20;3.33;;;;;;;16.61;79.66;101115.81;5089581;28;20207;-82
2022/10/28 04:51:50;;;;;;;8.13;3.43;;;;;;;16.65;79.39;101124.53;5089789;28;20207;-82
2022/10/28 04:54:16;;;;;;;10.50;2.80;;;;;;;16.72;78.95;101128.41;5092818;28;20238;-81
2022/10/28 04:56:43;;;;;;;7.67;3.63;;;;;;;16.73;78.79;101116.66;5091828;28;20197;-81
2022/10/28 04:59:09;;;;;;;7.90;2.90;;;;;;;16.76;78.47;101113.72;5094309;28;20210;-81
2022/10/28 05:01:36;;;;;;;6.00;2.93;;;;;;;16.81;78.01;101110.66;5094836;28;20200;-82
2022/10/28 05:04:03;;;;;;;5.30;2.60;;;;;;;16.86;77.84;101113.81;5085833;28;20224;-81
2022/10/28 05:06:30;;;;;;;7.13;2.83;;;;;;;16.87;77.79;101097.53;5093410;28;20215;-82
2022/10/28 05:08:57;;;;;;;6.27;2.87;;;;;;;16.87;77.48;101104.75;5084237;28;20218;-81
2022/10/28 05:11:23;;;;;;;9.87;3.20;;;;;;;16.87;77.59;101099.38;5084361;28;20209;-82
2022/10/28 05:13:51;;;;;;;7.27;3.30;;;;;;;16.86;77.38;101086.91;5095859;28;20239;-82
2022/10/28 05:16:18;;;;;;;7.47;3.20;;;;;;;16.85;77.42;101090.56;5090669;28;20621;-82
2022/10/28 05:18:44;;;;;;;7.63;3.37;;;;;;;16.83;77.43;101087.19;5094117;28;20231;-82
2022/10/28 05:21:11;;;;;;;7.90;3.07;;;;;;;16.81;77.61;101089.16;5093822;28;20200;-82
2022/10/28 05:23:39;;;;;;;5.17;2.70;;;;;;;16.78;77.69;101086.72;5092954;28;20235;-82
2022/10/28 05:26:05;;;;;;;6.97;3.00;;;;;;;16.76;77.87;101089.53;5094142;28;20214;-81
2022/10/28 05:28:32;;;;;;;7.10;3.00;;;;;;;16.72;78.00;101080.00;5088405;28;20205;-81
2022/10/28 05:30:58;;;;;;;6.20;3.07;;;;;;;16.70;78.33;101071.19;5094193;28;20219;-82
2022/10/28 05:33:25;;;;;;;7.70;3.60;;;;;;;16.69;78.40;101068.63;5096411;28;20210;-82
2022/10/28 05:35:51;;;;;;;8.27;3.23;;;;;;;16.69;78.58;101069.47;5093263;28;20231;-82
2022/10/28 05:38:17;;;;;;;6.23;2.83;;;;;;;16.70;78.49;101073.88;5094447;28;20211;-81
2022/10/28 05:40:45;;;;;;;3.90;3.27;;;;;;;16.67;78.53;101069.59;5094647;28;20214;-81
2022/10/28 05:43:12;;;;;;;9.53;3.20;;;;;;;16.65;78.81;101063.53;5094688;28;20564;-81
2022/10/28 05:45:38;;;;;;;3.90;2.77;;;;;;;16.65;79.00;101068.03;5093263;28;20215;-82
2022/10/28 05:48:05;;;;;;;6.70;3.10;;;;;;;16.65;78.82;101071.59;5090223;28;20196;-82
2022/10/28 05:50:32;;;;;;;7.07;3.27;;;;;;;16.63;78.84;101075.38;5086485;28;20206;-82
2022/10/28 05:52:58;;;;;;;7.20;3.40;;;;;;;16.61;79.05;101071.94;5092454;28;20211;-82
2022/10/28 05:55:27;;;;;;;6.80;3.03;;;;;;;16.60;78.96;101071.06;5090502;28;20231;-82
2022/10/28 05:57:55;;;;;;;10.73;3.63;;;;;;;16.58;79.14;101073.03;5090579;28;20677;-81
2022/10/28 06:00:23;;;;;;;6.17;3.53;;;;;;;16.55;79.18;101064.34;5088802;28;20656;-81
2022/10/28 06:02:50;;;;;;;8.00;2.87;;;;;;;16.55;79.09;101067.91;5090751;28;20215;-82
2022/10/28 06:05:16;;;;;;;5.67;3.10;;;;;;;16.56;79.13;101064.22;5092018;28;20230;-81
2022/10/28 06:07:43;;;;;;;6.63;2.90;;;;;;;16.60;78.95;101065.69;5093726;28;20564;-81
2022/10/28 06:10:11;;;;;;;9.20;3.10;;;;;;;16.65;78.86;101074.28;5098173;28;20201;-82
2022/10/28 06:12:38;;;;;;;6.97;2.77;;;;;;;16.70;78.34;101070.31;5097102;28;20218;-82
2022/10/28 06:15:07;;;;;;;5.70;2.80;;;;;;;16.78;77.66;101073.25;5093768;28;20229;-82
2022/10/28 06:17:34;;;;;;;8.53;2.67;;;;;;;16.83;77.37;101074.59;5093685;28;20209;-82
2022/10/28 06:20:00;;;;;;;6.73;2.63;;;;;;;16.89;76.83;101070.53;5093501;28;20612;-81
2022/10/28 06:22:27;;;;;;;9.00;3.33;;;;;;;16.92;76.38;101076.50;5093106;28;20204;-81
2022/10/28 06:24:53;;;;;;;5.97;2.90;;;;;;;16.94;76.32;101079.06;5094691;28;20232;-81
2022/10/28 06:27:19;;;;;;;8.77;2.93;;;;;;;16.98;75.84;101078.69;5090481;28;20606;-82
2022/10/28 06:29:46;;;;;;;5.33;2.63;;;;;;;17.02;75.50;101080.13;5092647;28;20659;-82
2022/10/28 06:32:14;;;;;;;6.00;3.10;;;;;;;17.06;75.25;101080.72;5096770;28;20197;-82
2022/10/28 06:34:40;;;;;;;7.57;2.60;;;;;;;17.11;75.07;101078.50;5098569;28;20230;-82
2022/10/28 06:37:07;;;;;;;6.67;2.70;;;;;;;17.15;74.68;101087.19;5089746;28;20196;-82
2022/10/28 06:39:33;;;;;;;4.43;2.43;;;;;;;17.17;74.54;101091.47;5092199;28;20200;-81
2022/10/28 06:42:00;;;;;;;8.30;2.77;;;;;;;17.22;74.36;101096.44;5092895;28;20201;-81
2022/10/28 06:44:26;;;;;;;6.30;2.53;;;;;;;17.27;74.30;101097.78;5093612;28;20232;-81
2022/10/28 06:46:53;;;;;;;7.13;2.50;;;;;;;17.29;74.09;101095.81;5092068;28;20227;-82
2022/10/28 06:49:21;;;;;;;6.20;2.70;;;;;;;17.31;73.94;101099.22;5091984;28;20677;-81
2022/10/28 06:51:48;;;;;;;7.60;2.47;;;;;;;17.31;74.05;101096.53;5091977;28;20210;-82
2022/10/28 06:54:15;;;;;;;7.30;2.83;;;;;;;17.32;74.13;101103.63;5092171;28;20220;-82
2022/10/28 06:56:44;;;;;;;6.80;3.30;;;;;;;17.34;73.88;101107.06;5088606;28;20209;-81
2022/10/28 06:59:10;;;;;;;7.07;2.80;;;;;;;17.35;73.79;101106.06;5091542;28;20826;-82
2022/10/28 07:01:36;;;;;;;6.00;2.67;;;;;;;17.38;73.79;101112.19;5090652;28;20786;-82
2022/10/28 07:04:03;;;;;;;7.77;2.87;;;;;;;17.40;73.81;101104.81;5086084;28;20221;-82
2022/10/28 07:06:31;;;;;;;6.23;2.77;;;;;;;17.42;73.86;101109.09;5091386;28;20214;-82
2022/10/28 07:08:57;;;;;;;14.67;3.10;;;;;;;17.47;73.84;101119.47;5090008;28;20682;-82
2022/10/28 07:11:24;;;;;;;9.23;2.73;;;;;;;17.50;73.91;101119.22;5091123;28;20206;-81
2022/10/28 07:13:50;;;;;;;8.23;2.80;;;;;;;17.55;73.72;101119.69;5088672;28;20221;-82
2022/10/28 07:16:17;;;;;;;9.30;3.30;;;;;;;17.60;73.59;101120.13;5090546;28;20224;-81
2022/10/28 07:18:43;;;;;;;12.90;3.10;;;;;;;17.60;73.43;101114.75;5088141;28;20220;-82
2022/10/28 07:21:10;;;;;;;6.47;3.27;;;;;;;17.63;73.28;101122.56;5087570;28;20200;-82
2022/10/28 07:23:37;;;;;;;7.80;2.67;;;;;;;17.64;73.34;101119.78;5090101;28;20232;-81
2022/10/28 07:26:04;;;;;;;7.97;2.53;;;;;;;17.65;73.19;101118.78;5082425;28;20208;-82
2022/10/28 07:28:31;;;;;;;9.33;3.13;;;;;;;17.70;73.12;101118.41;5091359;28;20314;-82
2022/10/28 07:31:11;;;;;;;9.83;3.00;;;;;;;17.74;72.90;101116.28;5091937;28;20210;-82
2022/10/28 07:33:38;;;;;;;8.73;2.77;;;;;;;17.80;72.80;101121.16;5089203;28;20236;-81
2022/10/28 07:36:05;;;;;;;12.57;3.30;;;;;;;17.82;72.64;101117.34;5085584;28;20222;-81
2022/10/28 07:38:35;;;;;;;6.00;2.90;;;;;;;17.85;72.53;101105.44;5086811;28;20211;-82
2022/10/28 07:41:05;;;;;;;8.10;2.87;;;;;;;17.86;72.61;101105.31;5082285;28;20693;-82
2022/10/28 07:43:35;;;;;;;5.97;2.67;;;;;;;17.91;72.53;101104.94;5089912;28;20218;-82
2022/10/28 07:46:02;;;;;;;6.73;2.97;;;;;;;17.94;72.30;101110.88;5087377;28;20213;-82
2022/10/28 07:48:28;;;;;;;7.67;2.67;;;;;;;17.99;72.16;101105.94;5082593;28;20210;-81
2022/10/28 07:50:55;;;;;;;7.47;2.93;;;;;;;18.03;72.30;101102.00;5088370;28;20199;-82
2022/10/28 07:53:21;;;;;;;7.83;2.73;;;;;;;18.07;72.07;101102.59;5083312;28;20628;-81
2022/10/28 07:56:00;;;;;;;6.07;2.20;;;;;;;18.15;72.08;101118.09;5079936;28;20723;-82
2022/10/28 07:58:28;;;;;;;8.63;3.43;;;;;;;18.21;71.70;101125.66;5082829;28;20202;-82
2022/10/28 08:00:54;;;;;;;8.23;2.90;;;;;;;18.29;71.72;101129.34;5077624;28;20218;-82
2022/10/28 08:03:23;;;;;;;6.17;2.40;;;;;;;18.38;71.33;101122.31;5085828;28;20210;-81
2022/10/28 08:05:50;;;;;;;8.23;3.23;;;;;;;18.49;70.96;101130.28;5082885;28;20206;-81
2022/10/28 08:08:16;;;;;;;9.77;2.90;;;;;;;18.59;70.64;101128.53;5084788;28;20205;-81
2022/10/28 08:10:43;;;;;;;5.33;2.67;;;;;;;18.69;70.32;101126.69;5084146;28;20210;-82
2022/10/28 08:13:10;;;;;;;8.70;3.10;;;;;;;18.82;69.64;101114.78;5086017;28;20211;-82
2022/10/28 08:15:38;;;;;;;6.87;2.60;;;;;;;18.91;69.46;101119.38;5084908;28;20248;-81
2022/10/28 08:18:04;;;;;;;8.53;2.60;;;;;;;18.99;68.82;101116.81;5082671;28;20212;-81
2022/10/28 08:20:30;;;;;;;9.40;2.70;;;;;;;19.08;68.04;101110.59;5080573;28;20209;-81
2022/10/28 08:22:58;;;;;;;8.40;3.00;;;;;;;19.17;67.66;101104.31;5077903;28;20203;-81
2022/10/28 08:25:25;;;;;;;7.60;2.70;;;;;;;19.24;67.47;101110.88;5085895;28;20227;-81
2022/10/28 08:27:51;;;;;;;7.37;2.43;;;;;;;19.29;67.04;101107.75;5088482;28;20838;-81
2022/10/28 08:30:18;;;;;;;7.03;3.37;;;;;;;19.35;66.23;101112.56;5085813;28;20689;-82
2022/10/28 08:32:45;;;;;;;6.10;2.23;;;;;;;19.41;66.27;101114.72;5088957;28;20214;-82
2022/10/28 08:35:12;;;;;;;5.97;2.67;;;;;;;19.47;66.12;101105.19;5083536;28;21133;-81
2022/10/28 08:37:38;;;;;;;7.07;2.70;;;;;;;19.54;64.98;101118.00;5083705;28;20659;-81
2022/10/28 08:40:06;;;;;;;8.43;2.83;;;;;;;19.60;65.14;101124.69;5085725;28;21277;-81
2022/10/28 08:42:41;;;;;;;8.30;2.50;;;;;;;19.67;65.11;101128.53;5081476;28;20210;-81
2022/10/28 08:45:25;;;;;;;8.63;2.53;;;;;;;19.75;65.24;101117.84;5083636;28;20219;-81
2022/10/28 08:48:04;;;;;;;6.93;2.57;;;;;;;19.83;64.72;101120.69;5080619;28;20287;-81
2022/10/28 08:50:33;;;;;;;9.47;2.97;;;;;;;19.90;64.54;101119.09;5086213;28;20211;-81
2022/10/28 08:53:06;;;;;;;9.43;3.13;;;;;;;19.96;64.55;101113.09;5089150;28;20199;-81
2022/10/28 08:55:37;;;;;;;7.73;2.77;;;;;;;20.02;64.08;101117.94;5089127;28;20244;-81
2022/10/28 08:58:08;;;;;;;5.27;2.60;;;;;;;20.08;63.79;101116.47;5084257;28;20820;-81
2022/10/28 09:00:36;;;;;;;8.70;3.40;;;;;;;20.16;63.74;101116.59;5086164;28;20216;-81
2022/10/28 09:03:16;;;;;;;9.07;3.10;;;;;;;20.27;63.23;101116.41;5086562;28;20211;-82
2022/10/28 09:05:46;;;;;;;8.20;2.72;;;;;;;20.37;62.07;101117.25;5086532;28;20227;-81
2022/10/28 09:08:20;;;;;;;11.50;3.23;;;;;;;20.43;61.74;101121.22;5080378;28;20252;-81
2022/10/28 09:11:06;;;;;;;9.13;2.97;;;;;;;20.49;61.00;101119.75;5083310;28;20197;-82
2022/10/28 09:13:44;;;;;;;6.25;2.22;;;;;;;20.53;60.46;101116.63;5085085;28;20196;-82
2022/10/28 09:16:18;;;;;;;9.82;3.22;;;;;;;20.57;60.26;101117.19;5084212;28;20693;-82
2022/10/28 09:18:51;;;;;;;6.18;3.08;;;;;;;20.63;60.17;101116.56;5092291;28;20225;-82
2022/10/28 09:21:22;;;;;;;7.10;2.40;;;;;;;20.71;60.05;101119.38;5087708;28;20210;-81
2022/10/28 09:23:55;;;;;;;8.90;2.72;;;;;;;20.80;59.91;101113.88;5087702;28;20224;-82
2022/10/28 09:26:31;;;;;;;10.25;2.80;;;;;;;20.94;59.12;101122.53;5083417;28;20198;-81
2022/10/28 09:29:19;;;;;;;6.55;2.75;;;;;;;21.04;58.84;101107.03;5083112;28;20204;-79
2022/10/28 09:31:48;;;;;;;10.57;2.47;;;;;;;21.11;58.05;101116.28;5083301;28;20287;-81
2022/10/28 09:34:27;;;;;;;6.50;2.38;;;;;;;21.17;58.08;101110.22;5085679;28;20749;-81
2022/10/28 09:36:59;;;;;;;7.60;3.33;;;;;;;21.23;57.77;101114.22;5081850;28;20616;-80
2022/10/28 09:39:30;;;;;;;8.35;3.28;;;;;;;21.32;57.66;101107.84;5083643;28;20204;-80
2022/10/28 09:42:00;;;;;;;6.68;2.60;;;;;;;21.40;57.50;101110.63;5082718;28;20204;-80
2022/10/28 09:44:33;;;;;;;8.65;2.97;;;;;;;21.45;56.91;101092.06;5080769;28;20266;-80
2022/10/28 09:47:01;;;;;;;8.98;2.67;;;;;;;21.54;56.58;101101.09;5082498;28;20204;-81
2022/10/28 09:49:34;;;;;;;6.28;2.10;;;;;;;21.63;56.53;101101.00;5082823;28;20207;-80
2022/10/28 09:52:08;;;;;;;5.32;2.60;;;;;;;21.71;55.86;101098.34;5080624;28;20257;-80
2022/10/28 09:54:38;;;;;;;9.25;2.90;;;;;;;21.80;55.86;101105.56;5084456;28;20216;-80
2022/10/28 09:57:05;;;;;;;8.27;2.35;;;;;;;21.92;55.25;101100.69;5081801;28;20223;-80
2022/10/28 09:59:32;;;;;;;7.80;2.75;;;;;;;22.03;54.84;101108.63;5079945;28;20208;-80
2022/10/28 10:01:58;;;;;;;5.68;2.42;;;;;;;22.11;54.50;101100.50;5082565;28;20219;-80
2022/10/28 10:04:26;;;;;;;8.38;2.33;;;;;;;22.19;54.10;101104.31;5080936;28;20236;-80
2022/10/28 10:06:58;;;;;;;7.28;2.50;;;;;;;22.28;54.13;101108.75;5080582;28;21372;-81
2022/10/28 10:09:26;;;;;;;6.53;2.63;;;;;;;22.34;53.65;101113.53;5083026;28;20215;-80
2022/10/28 10:11:55;;;;;;;7.88;2.50;;;;;;;22.42;53.28;101102.69;5083099;28;20218;-81
2022/10/28 10:14:28;;;;;;;5.22;2.60;;;;;;;22.48;53.09;101112.91;5081223;28;20217;-81
2022/10/28 10:16:59;;;;;;;8.93;3.00;;;;;;;22.54;53.13;101114.13;5081222;28;20219;-81
2022/10/28 10:19:25;;;;;;;8.35;3.28;;;;;;;22.62;53.15;101108.72;5079231;28;20217;-80
2022/10/28 10:21:54;;;;;;;6.63;2.30;;;;;;;22.64;52.45;101107.53;5079928;28;20200;-81
2022/10/28 10:24:31;;;;;;;7.68;2.78;;;;;;;22.71;52.69;101100.47;5088200;28;20689;-80
2022/10/28 10:27:01;;;;;;;10.73;2.67;;;;;;;22.75;52.38;101104.53;5082577;28;20214;-81
2022/10/28 10:29:28;;;;;;;9.27;2.70;;;;;;;22.80;52.21;101102.19;5082442;28;20215;-81
2022/10/28 10:32:19;;;;;;;8.20;2.35;;;;;;;22.88;52.00;101103.25;5083869;28;20199;-81
2022/10/28 10:34:52;;;;;;;10.57;2.78;;;;;;;22.91;51.79;101102.91;5065208;28;20602;-81
2022/10/28 10:37:22;;;;;;;7.03;2.45;;;;;;;22.93;51.66;101099.00;5082300;28;20204;-81
2022/10/28 10:40:02;;;;;;;6.85;2.35;;;;;;;23.00;51.32;101091.88;5084691;28;20203;-81
2022/10/28 10:42:29;;;;;;;9.15;2.50;;;;;;;23.03;51.01;101097.00;5083829;28;20247;-81
2022/10/28 10:45:02;;;;;;;6.60;2.38;;;;;;;23.07;51.27;101100.25;5081999;28;20261;-81
2022/10/28 10:47:28;;;;;;;7.72;2.60;;;;;;;23.10;51.35;101091.75;5076691;28;20235;-81
2022/10/28 10:50:19;;;;;;;6.13;2.72;;;;;;;23.12;51.15;101093.25;5081212;28;20208;-81
2022/10/28 10:52:51;;;;;;;10.50;2.83;;;;;;;23.16;50.76;101099.22;5081681;28;20230;-81
2022/10/28 10:55:23;;;;;;;7.55;2.70;;;;;;;23.15;50.94;101087.50;5082645;28;20216;-82
2022/10/28 10:57:50;;;;;;;7.32;2.67;;;;;;;23.19;50.96;101085.31;5087579;28;20222;-82
2022/10/28 11:00:22;;;;;;;6.43;2.83;;;;;;;23.23;50.88;101086.66;5084930;28;20204;-81
2022/10/28 11:02:50;;;;;;;5.35;2.42;;;;;;;23.27;51.15;101088.03;5083343;28;20196;-82
2022/10/28 11:05:21;;;;;;;7.65;2.50;;;;;;;23.31;51.13;101088.53;5082793;28;20225;-82
2022/10/28 11:07:51;;;;;;;8.50;2.58;;;;;;;23.33;51.11;101078.34;5089118;28;20200;-82
2022/10/28 11:10:23;;;;;;;8.55;2.78;;;;;;;23.33;51.25;101084.63;5084547;28;20211;-82
2022/10/28 11:12:55;;;;;;;7.15;2.70;;;;;;;23.36;51.30;101083.44;5085270;28;20204;-82
2022/10/28 11:15:28;;;;;;;7.00;2.67;;;;;;;23.36;51.13;101073.41;5086568;28;20224;-82
2022/10/28 11:17:57;;;;;;;7.18;2.53;;;;;;;23.35;51.46;101074.44;5089086;28;20209;-81
2022/10/28 11:20:27;;;;;;;7.55;2.30;;;;;;;23.38;51.42;101065.94;5086476;28;20211;-82
2022/10/28 11:23:07;;;;;;;6.53;2.90;;;;;;;23.37;51.33;101064.25;5089594;28;20200;-81
2022/10/28 11:25:36;;;;;;;7.45;2.72;;;;;;;23.38;51.61;101052.34;5085022;28;20231;-81
2022/10/28 11:28:18;;;;;;;6.25;2.50;;;;;;;23.41;51.66;101043.88;5089101;28;20192;-82
2022/10/28 11:30:55;;;;;;;13.38;2.78;;;;;;;23.46;52.13;101051.50;5096134;28;20208;-82
2022/10/28 11:33:31;;;;;;;7.32;2.25;;;;;;;23.48;51.84;101046.72;5094596;28;20205;-82
2022/10/28 11:36:09;;;;;;;7.93;3.17;;;;;;;23.48;51.87;101053.00;5092800;28;20211;-82